Time;durP1;ratioP1;P1;durP2;ratioP2;P2;SDS_P1;SDS_P2;PMS_P1;PMS_P2;Temp;Humidity;BMP_temperature;BMP_pressure;BME280_temperature;BME280_humidity;BME280_pressure;Samples;Min_cycle;Max_cycle;Signal;HPM_P1;HPM_P2
2022/05/13 00:00:49;;;;;;;21.15;4.72;;;12.80;99.90;;;;;;5079368;28;20491;-72
2022/05/13 00:03:14;;;;;;;18.30;4.68;;;12.80;99.90;;;;;;5080185;28;20048;-72
2022/05/13 00:05:40;;;;;;;16.13;4.47;;;12.80;99.90;;;;;;5077032;28;20536;-74
2022/05/13 00:08:06;;;;;;;17.00;4.45;;;12.80;99.90;;;;;;5077857;28;20043;-73
2022/05/13 00:10:32;;;;;;;17.38;4.00;;;12.80;99.90;;;;;;5075785;28;20048;-73
2022/05/13 00:12:58;;;;;;;13.98;4.88;;;12.70;99.90;;;;;;5076914;28;20097;-73
2022/05/13 00:15:26;;;;;;;17.25;4.80;;;12.70;99.90;;;;;;5077501;28;20044;-73
2022/05/13 00:17:55;;;;;;;20.33;4.60;;;12.70;99.90;;;;;;5075516;28;20578;-73
2022/05/13 00:20:22;;;;;;;25.38;5.30;;;12.70;99.90;;;;;;5073908;28;20167;-74
2022/05/13 00:22:50;;;;;;;22.23;5.05;;;12.70;99.90;;;;;;5076186;28;20431;-74
2022/05/13 00:25:19;;;;;;;21.80;5.15;;;12.70;99.90;;;;;;5082020;28;20131;-73
2022/05/13 00:27:45;;;;;;;23.33;5.82;;;12.70;99.90;;;;;;5077464;28;20052;-72
2022/05/13 00:30:12;;;;;;;23.83;5.05;;;12.70;99.90;;;;;;5076800;28;20044;-73
2022/05/13 00:32:40;;;;;;;17.38;5.00;;;12.70;99.90;;;;;;5078764;28;20043;-74
2022/05/13 00:35:07;;;;;;;20.75;5.03;;;12.70;99.90;;;;;;5075927;28;22188;-73
2022/05/13 00:37:33;;;;;;;24.58;5.47;;;12.70;99.90;;;;;;5088354;28;20044;-73
2022/05/13 00:39:59;;;;;;;26.02;5.65;;;12.70;99.90;;;;;;5087321;28;20306;-74
2022/05/13 00:42:25;;;;;;;22.20;4.57;;;12.70;99.90;;;;;;5084564;28;20639;-73
2022/05/13 00:44:51;;;;;;;15.60;3.92;;;12.70;99.90;;;;;;5085759;28;20126;-73
2022/05/13 00:47:19;;;;;;;23.85;5.30;;;12.70;99.90;;;;;;5083377;28;20186;-73
2022/05/13 00:49:44;;;;;;;18.15;4.72;;;12.70;99.90;;;;;;5080953;28;20141;-73
2022/05/13 00:52:11;;;;;;;19.65;4.85;;;12.70;99.90;;;;;;5077874;28;20074;-73
2022/05/13 00:54:39;;;;;;;19.80;4.97;;;12.70;99.90;;;;;;5077883;28;20043;-73
2022/05/13 00:57:05;;;;;;;23.30;5.85;;;12.70;99.90;;;;;;5075465;28;20056;-72
2022/05/13 00:59:34;;;;;;;20.45;5.88;;;12.70;99.90;;;;;;5078673;28;20495;-73
2022/05/13 01:02:00;;;;;;;29.52;6.13;;;12.70;99.90;;;;;;5077863;28;20087;-73
2022/05/13 01:04:26;;;;;;;19.02;5.22;;;12.70;99.90;;;;;;5077004;28;20101;-73
2022/05/13 01:06:55;;;;;;;21.65;4.80;;;12.70;99.90;;;;;;5075687;28;20122;-73
2022/05/13 01:09:22;;;;;;;22.15;5.43;;;12.70;99.90;;;;;;5056788;28;20147;-73
2022/05/13 01:11:52;;;;;;;19.33;5.15;;;12.70;99.90;;;;;;5075184;28;20093;-73
2022/05/13 01:14:28;;;;;;;25.20;5.55;;;12.70;99.90;;;;;;5078880;28;20039;-74
2022/05/13 01:19:38;;;;;;;21.25;5.43;;;12.70;99.90;;;;;;5070983;28;20036;-74
2022/05/13 01:22:15;;;;;;;22.52;6.25;;;12.70;99.90;;;;;;5076402;28;20132;-74
2022/05/13 01:24:41;;;;;;;23.90;6.28;;;12.70;99.90;;;;;;5078041;28;20059;-74
2022/05/13 01:27:07;;;;;;;24.88;6.05;;;12.70;99.90;;;;;;5074551;28;20052;-73
2022/05/13 01:29:33;;;;;;;27.27;5.70;;;12.70;99.90;;;;;;5077737;28;20055;-73
2022/05/13 01:31:58;;;;;;;24.48;7.10;;;12.70;99.90;;;;;;5076591;28;20040;-74
2022/05/13 01:34:24;;;;;;;28.45;7.53;;;12.70;99.90;;;;;;5078741;28;20048;-73
2022/05/13 01:36:50;;;;;;;24.80;5.40;;;12.70;99.90;;;;;;5073439;28;20089;-73
2022/05/13 01:39:15;;;;;;;22.50;6.10;;;12.70;99.90;;;;;;5075402;28;20058;-73
2022/05/13 01:41:41;;;;;;;26.50;7.22;;;12.70;99.90;;;;;;5077731;28;20056;-73
2022/05/13 01:44:06;;;;;;;30.38;6.93;;;12.80;99.90;;;;;;5073011;28;20063;-73
2022/05/13 01:46:32;;;;;;;28.05;6.45;;;12.70;99.90;;;;;;5074751;28;20119;-73
2022/05/13 01:48:58;;;;;;;26.38;6.63;;;12.80;99.90;;;;;;5075129;28;20063;-74
2022/05/13 01:51:24;;;;;;;23.45;6.65;;;12.70;99.90;;;;;;5076400;28;20154;-73
2022/05/13 01:53:50;;;;;;;24.15;6.22;;;12.80;99.90;;;;;;5076209;28;20710;-73
2022/05/13 01:56:16;;;;;;;25.73;5.72;;;12.70;99.90;;;;;;5073056;28;20289;-73
2022/05/13 01:58:42;;;;;;;31.85;6.55;;;12.70;99.90;;;;;;5071311;28;20127;-74
2022/05/13 02:01:09;;;;;;;20.20;5.82;;;12.80;99.90;;;;;;5057624;28;20507;-74
2022/05/13 02:03:44;;;;;;;23.13;6.55;;;12.70;99.90;;;;;;5079632;28;20089;-74
2022/05/13 02:06:24;;;;;;;33.15;7.90;;;12.70;99.90;;;;;;5074606;28;20065;-74
2022/05/13 02:08:52;;;;;;;25.77;6.53;;;12.70;99.90;;;;;;5077090;28;20044;-74
2022/05/13 02:11:18;;;;;;;27.25;6.72;;;12.70;99.90;;;;;;5073405;28;20127;-74
2022/05/13 02:13:44;;;;;;;28.08;6.30;;;12.70;99.90;;;;;;5075542;28;20067;-73
2022/05/13 02:16:12;;;;;;;25.67;6.85;;;12.70;99.90;;;;;;5056608;28;20660;-74
2022/05/13 02:18:38;;;;;;;33.13;6.57;;;12.70;99.90;;;;;;5075862;28;20061;-75
2022/05/13 02:21:04;;;;;;;25.67;6.25;;;12.70;99.90;;;;;;5073553;28;20393;-74
2022/05/13 02:23:30;;;;;;;21.20;5.03;;;12.70;99.90;;;;;;5075981;28;20514;-74
2022/05/13 02:26:01;;;;;;;22.95;5.97;;;12.70;99.90;;;;;;5074450;28;20053;-72
2022/05/13 02:28:27;;;;;;;22.20;5.47;;;12.80;99.90;;;;;;5075342;28;20047;-74
2022/05/13 02:30:53;;;;;;;30.67;5.72;;;12.70;99.90;;;;;;5081361;28;20048;-73
2022/05/13 02:33:19;;;;;;;29.55;6.80;;;12.70;99.90;;;;;;5078857;28;20063;-74
2022/05/13 02:35:45;;;;;;;27.33;5.55;;;12.70;99.90;;;;;;5076965;28;20411;-74
2022/05/13 02:38:14;;;;;;;30.10;5.63;;;12.70;99.90;;;;;;5075177;28;20048;-74
2022/05/13 02:43:24;;;;;;;23.20;4.95;;;12.70;99.90;;;;;;5074703;28;20127;-73
2022/05/13 02:45:50;;;;;;;27.35;5.30;;;12.70;99.90;;;;;;5069273;28;20479;-74
2022/05/13 02:48:15;;;;;;;23.20;5.38;;;12.70;99.90;;;;;;5075519;28;20048;-73
2022/05/13 02:50:41;;;;;;;23.65;5.80;;;12.70;99.90;;;;;;5071666;28;20314;-74
2022/05/13 02:53:07;;;;;;;19.33;5.03;;;12.70;99.90;;;;;;5076492;28;20043;-74
2022/05/13 02:55:33;;;;;;;24.33;5.43;;;12.70;99.90;;;;;;5075609;28;20411;-74
2022/05/13 02:57:59;;;;;;;21.58;5.10;;;12.70;99.90;;;;;;5073483;28;20039;-75
2022/05/13 03:00:26;;;;;;;22.30;5.10;;;12.70;99.90;;;;;;5074117;28;20093;-74
2022/05/13 03:02:51;;;;;;;22.30;5.15;;;12.70;99.90;;;;;;5081774;28;20048;-73
2022/05/13 03:05:17;;;;;;;22.83;5.75;;;12.70;99.90;;;;;;5082159;28;20454;-74
2022/05/13 03:07:43;;;;;;;20.08;4.68;;;12.70;99.90;;;;;;5083409;28;20436;-73
2022/05/13 03:10:09;;;;;;;18.65;4.75;;;12.70;99.90;;;;;;5071599;28;20426;-74
2022/05/13 03:12:35;;;;;;;17.77;5.03;;;12.70;99.90;;;;;;5075842;28;20431;-74
2022/05/13 03:15:02;;;;;;;20.50;5.32;;;12.70;99.90;;;;;;5075405;28;20039;-74
2022/05/13 03:17:28;;;;;;;15.07;4.88;;;12.70;99.90;;;;;;5074121;28;20028;-74
2022/05/13 03:19:54;;;;;;;18.02;4.78;;;12.70;99.90;;;;;;5070869;28;20143;-73
2022/05/13 03:22:19;;;;;;;23.65;4.47;;;12.70;99.90;;;;;;5075372;28;20166;-73
2022/05/13 03:24:45;;;;;;;19.85;4.95;;;12.60;99.90;;;;;;5075732;28;20044;-74
2022/05/13 03:27:11;;;;;;;23.17;5.40;;;12.60;99.90;;;;;;5073988;28;20323;-73
2022/05/13 03:29:36;;;;;;;21.02;4.82;;;12.60;99.90;;;;;;5073175;28;20048;-73
2022/05/13 03:32:06;;;;;;;22.90;4.00;;;12.60;99.90;;;;;;5073892;28;20044;-74
2022/05/13 03:34:32;;;;;;;15.63;4.07;;;12.60;99.90;;;;;;5073151;28;20051;-73
2022/05/13 03:36:58;;;;;;;15.98;3.90;;;12.60;99.90;;;;;;5077499;28;20032;-74
2022/05/13 03:39:24;;;;;;;18.80;3.78;;;12.60;99.90;;;;;;5076286;28;20531;-73
2022/05/13 03:41:50;;;;;;;11.88;3.30;;;12.60;99.90;;;;;;5074607;28;20113;-74
2022/05/13 03:44:18;;;;;;;13.73;3.38;;;12.60;99.90;;;;;;5068269;28;22169;-73
2022/05/13 03:46:44;;;;;;;14.00;3.92;;;12.60;99.90;;;;;;5067740;28;20663;-73
2022/05/13 03:49:10;;;;;;;10.88;3.30;;;12.60;99.90;;;;;;5072614;28;20040;-73
2022/05/13 03:51:36;;;;;;;10.73;3.58;;;12.60;99.90;;;;;;5077052;28;20040;-73
2022/05/13 03:54:01;;;;;;;9.45;4.03;;;12.60;99.90;;;;;;5074291;28;20384;-73
2022/05/13 03:56:27;;;;;;;12.50;3.25;;;12.60;99.90;;;;;;5074213;28;20093;-73
2022/05/13 03:58:53;;;;;;;8.45;2.92;;;12.60;99.90;;;;;;5072609;28;20059;-72
2022/05/13 04:01:18;;;;;;;7.38;2.50;;;12.60;99.90;;;;;;5075388;28;20078;-73
2022/05/13 04:03:47;;;;;;;8.55;2.38;;;12.70;99.90;;;;;;5074606;28;20066;-73
2022/05/13 04:08:58;;;;;;;10.65;2.45;;;12.70;99.90;;;;;;5079992;28;20472;-72
2022/05/13 04:11:29;;;;;;;8.73;2.92;;;12.70;99.90;;;;;;5077063;28;20067;-73
2022/05/13 04:16:39;;;;;;;12.68;2.17;;;12.80;99.90;;;;;;5078222;28;20043;-73
2022/05/13 04:19:05;;;;;;;11.18;2.20;;;12.70;99.90;;;;;;5062406;28;20395;-73
2022/05/13 04:21:33;;;;;;;5.80;2.20;;;12.80;99.90;;;;;;5079953;28;20479;-73
2022/05/13 04:24:02;;;;;;;9.13;2.38;;;12.80;99.90;;;;;;5078680;28;20063;-73
2022/05/13 04:26:28;;;;;;;12.70;3.38;;;12.70;99.90;;;;;;5081474;28;20143;-74
2022/05/13 04:28:55;;;;;;;18.27;3.45;;;12.80;99.90;;;;;;5082402;28;20052;-74
2022/05/13 04:31:26;;;;;;;9.20;3.15;;;12.70;99.90;;;;;;5080506;28;20059;-73
2022/05/13 04:33:52;;;;;;;12.27;3.58;;;12.70;99.90;;;;;;5076628;28;20091;-73
2022/05/13 04:36:19;;;;;;;14.25;3.40;;;12.70;99.90;;;;;;5080621;28;20119;-73
2022/05/13 04:38:45;;;;;;;9.30;2.38;;;12.70;99.90;;;;;;5084591;28;20545;-73
2022/05/13 04:43:56;;;;;;;10.00;2.42;;;12.70;99.90;;;;;;5079319;28;20052;-74
2022/05/13 04:46:23;;;;;;;9.10;2.90;;;12.70;99.90;;;;;;5080021;28;20050;-73
2022/05/13 04:48:50;;;;;;;11.80;2.80;;;12.70;99.90;;;;;;5069721;28;20047;-74
2022/05/13 04:51:19;;;;;;;9.38;1.98;;;12.70;99.90;;;;;;5080453;28;20049;-73
2022/05/13 04:53:47;;;;;;;10.95;2.70;;;12.80;99.90;;;;;;5077773;28;20181;-73
2022/05/13 04:56:13;;;;;;;12.15;2.83;;;12.70;99.90;;;;;;5065033;28;20041;-72
2022/05/13 04:58:39;;;;;;;11.77;2.97;;;12.80;99.90;;;;;;5083158;28;20042;-73
2022/05/13 05:01:07;;;;;;;11.30;2.60;;;12.70;99.90;;;;;;5081047;28;20519;-71
2022/05/13 05:03:35;;;;;;;13.48;3.28;;;12.80;99.90;;;;;;5081577;28;20044;-72
2022/05/13 05:06:02;;;;;;;5.95;2.38;;;12.80;99.90;;;;;;5080514;28;20044;-72
2022/05/13 05:08:29;;;;;;;11.13;2.38;;;12.80;99.90;;;;;;5085219;28;20096;-72
2022/05/13 05:10:56;;;;;;;9.90;2.75;;;12.80;99.90;;;;;;5080026;28;20439;-71
2022/05/13 05:13:28;;;;;;;13.80;2.88;;;12.80;99.90;;;;;;5066420;28;20626;-71
2022/05/13 05:15:54;;;;;;;15.45;3.53;;;12.80;99.90;;;;;;5083407;28;20096;-71
2022/05/13 05:18:20;;;;;;;8.98;2.65;;;12.90;99.90;;;;;;5084125;28;20786;-71
2022/05/13 05:20:47;;;;;;;10.15;3.17;;;12.80;99.90;;;;;;5086131;28;20135;-69
2022/05/13 05:23:22;;;;;;;14.18;2.88;;;12.90;99.90;;;;;;5086523;28;20112;-71
2022/05/13 05:25:48;;;;;;;11.63;2.20;;;12.80;99.90;;;;;;5084230;28;20123;-73
2022/05/13 05:28:14;;;;;;;14.45;2.78;;;12.90;99.90;;;;;;5078277;28;20126;-74
2022/05/13 05:30:41;;;;;;;14.85;2.88;;;12.90;99.90;;;;;;5081994;28;20137;-72
2022/05/13 05:33:07;;;;;;;9.63;2.50;;;13.00;99.90;;;;;;5081497;28;20534;-71
2022/05/13 05:35:33;;;;;;;7.75;2.33;;;13.00;99.90;;;;;;5082999;28;20052;-69
2022/05/13 05:37:59;;;;;;;11.15;2.67;;;13.00;99.90;;;;;;5064891;28;20127;-69
2022/05/13 05:40:25;;;;;;;15.48;2.83;;;13.00;99.90;;;;;;5079457;28;20509;-70
2022/05/13 05:42:51;;;;;;;7.00;2.15;;;13.00;99.90;;;;;;5061549;28;20476;-68
2022/05/13 05:45:19;;;;;;;13.18;2.70;;;13.00;99.90;;;;;;5078052;28;20127;-69
2022/05/13 05:47:45;;;;;;;7.35;2.10;;;13.10;99.90;;;;;;5078698;28;20039;-70
2022/05/13 05:50:15;;;;;;;8.13;2.13;;;13.10;99.90;;;;;;5065581;28;20047;-70
2022/05/13 05:52:40;;;;;;;11.43;2.47;;;13.10;99.90;;;;;;5077095;28;20047;-70
2022/05/13 05:58:07;;;;;;;16.55;2.60;;;13.10;99.90;;;;;;5080544;28;20068;-70
2022/05/13 06:00:35;;;;;;;5.97;1.83;;;13.20;99.90;;;;;;5081925;28;20044;-71
2022/05/13 06:03:01;;;;;;;7.47;1.85;;;13.20;99.90;;;;;;5079845;28;20086;-69
2022/05/13 06:05:27;;;;;;;9.43;2.40;;;13.20;99.90;;;;;;5062610;28;20452;-69
2022/05/13 06:07:58;;;;;;;10.27;2.53;;;13.20;99.90;;;;;;5082358;28;20044;-69
2022/05/13 06:10:25;;;;;;;8.30;1.90;;;13.20;99.90;;;;;;5079863;28;20453;-70
2022/05/13 06:12:51;;;;;;;6.18;1.88;;;13.30;99.90;;;;;;5082353;28;20574;-69
2022/05/13 06:15:17;;;;;;;12.90;2.13;;;13.30;99.90;;;;;;5084249;28;20052;-68
2022/05/13 06:17:54;;;;;;;8.30;1.83;;;13.30;99.90;;;;;;5084803;28;20081;-69
2022/05/13 06:20:23;;;;;;;8.32;1.90;;;13.40;99.90;;;;;;5077849;28;20044;-69
2022/05/13 06:22:49;;;;;;;11.07;2.42;;;13.30;99.90;;;;;;5060245;28;20147;-69
2022/05/13 06:25:16;;;;;;;8.45;2.25;;;13.40;99.90;;;;;;5078817;28;20048;-69
2022/05/13 06:27:44;;;;;;;4.45;2.20;;;13.40;99.90;;;;;;5079701;28;20039;-68
2022/05/13 06:30:14;;;;;;;10.80;2.10;;;13.40;99.90;;;;;;5079040;28;20070;-69
2022/05/13 06:32:41;;;;;;;6.93;1.92;;;13.40;99.90;;;;;;5084011;28;20064;-68
2022/05/13 06:35:07;;;;;;;7.68;1.67;;;13.40;99.90;;;;;;5081211;28;20048;-68
2022/05/13 06:37:33;;;;;;;5.60;2.25;;;13.40;99.90;;;;;;5080783;28;20086;-68
2022/05/13 06:39:59;;;;;;;11.80;2.75;;;13.50;99.90;;;;;;5082796;28;20051;-69
2022/05/13 06:42:25;;;;;;;12.75;3.17;;;13.60;99.90;;;;;;5079690;28;20040;-69
2022/05/13 06:44:50;;;;;;;11.52;2.25;;;13.60;99.90;;;;;;5080102;28;20123;-70
2022/05/13 06:47:16;;;;;;;6.75;1.70;;;13.70;99.90;;;;;;5061026;28;20471;-70
2022/05/13 06:49:42;;;;;;;7.15;1.98;;;13.70;99.90;;;;;;5062783;28;20329;-70
2022/05/13 06:52:13;;;;;;;9.77;2.53;;;13.80;99.90;;;;;;5062954;28;20086;-68
2022/05/13 06:54:42;;;;;;;13.70;2.78;;;13.80;99.90;;;;;;5080517;28;20044;-68
2022/05/13 06:57:08;;;;;;;8.73;2.40;;;13.90;99.90;;;;;;5061350;28;20492;-70
2022/05/13 06:59:34;;;;;;;9.45;2.60;;;13.90;99.90;;;;;;5061285;28;20519;-66
2022/05/13 07:02:00;;;;;;;8.02;2.17;;;14.00;99.90;;;;;;5082431;28;20068;-66
2022/05/13 07:04:26;;;;;;;12.43;2.08;;;14.10;99.90;;;;;;5079554;28;20132;-66
2022/05/13 07:06:51;;;;;;;7.78;1.90;;;14.20;99.90;;;;;;5081795;28;20097;-66
2022/05/13 07:09:17;;;;;;;11.00;2.40;;;14.20;99.90;;;;;;5079734;28;20050;-66
2022/05/13 07:11:44;;;;;;;3.85;1.65;;;14.30;99.90;;;;;;5060762;28;20581;-66
2022/05/13 07:14:12;;;;;;;8.63;2.10;;;14.50;99.90;;;;;;5058021;28;20040;-67
2022/05/13 07:16:38;;;;;;;6.05;1.98;;;14.60;99.90;;;;;;5082099;28;20055;-67
2022/05/13 07:19:03;;;;;;;9.13;2.50;;;14.80;99.90;;;;;;5073942;28;21829;-66
2022/05/13 07:21:29;;;;;;;9.68;2.03;;;14.90;99.90;;;;;;5083446;28;20048;-67
2022/05/13 07:23:54;;;;;;;6.75;1.92;;;14.80;99.90;;;;;;5062690;28;20051;-67
2022/05/13 07:26:20;;;;;;;22.30;2.22;;;14.80;99.90;;;;;;5082911;28;20052;-66
2022/05/13 07:28:46;;;;;;;12.45;3.47;;;14.90;99.90;;;;;;5082990;28;20603;-67
2022/05/13 07:31:12;;;;;;;11.50;2.25;;;14.70;99.90;;;;;;5082657;28;20194;-67
2022/05/13 07:33:37;;;;;;;12.65;2.50;;;14.80;99.90;;;;;;5083231;28;20513;-67
2022/05/13 07:36:04;;;;;;;11.35;2.53;;;14.70;99.90;;;;;;5079483;28;20032;-67
2022/05/13 07:38:31;;;;;;;5.38;1.95;;;14.70;99.90;;;;;;5079852;28;20089;-67
2022/05/13 07:41:16;;;;;;;10.50;1.80;;;14.80;99.90;;;;;;5081072;28;20055;-67
2022/05/13 07:43:45;;;;;;;9.13;1.92;;;14.90;99.90;;;;;;5080830;28;20506;-67
2022/05/13 07:46:12;;;;;;;16.27;3.25;;;15.10;99.90;;;;;;5058991;28;20052;-66
2022/05/13 07:48:39;;;;;;;7.50;1.77;;;15.20;99.90;;;;;;5079639;28;20036;-67
2022/05/13 07:51:05;;;;;;;15.98;4.10;;;15.30;99.90;;;;;;5084465;28;20120;-67
2022/05/13 07:53:31;;;;;;;7.35;1.95;;;15.10;99.90;;;;;;5082292;28;20040;-67
2022/05/13 07:55:58;;;;;;;6.78;2.25;;;15.00;99.90;;;;;;5062125;28;20522;-66
2022/05/13 07:58:23;;;;;;;6.30;1.77;;;15.00;99.90;;;;;;5078787;28;20126;-67
2022/05/13 08:00:49;;;;;;;7.80;1.65;;;15.20;99.90;;;;;;5077291;28;20499;-66
2022/05/13 08:03:16;;;;;;;7.82;2.08;;;15.40;99.90;;;;;;5081493;28;20056;-66
2022/05/13 08:05:45;;;;;;;9.43;1.70;;;15.60;99.90;;;;;;5065534;28;20271;-66
2022/05/13 08:08:24;;;;;;;7.43;1.60;;;15.60;99.90;;;;;;5086766;28;20044;-67
2022/05/13 08:10:55;;;;;;;9.45;2.05;;;15.60;99.90;;;;;;5082177;28;20075;-66
2022/05/13 08:13:23;;;;;;;11.55;1.98;;;15.60;99.90;;;;;;5061941;28;20056;-66
2022/05/13 08:15:49;;;;;;;6.97;2.33;;;15.70;99.90;;;;;;5087369;28;20044;-66
2022/05/13 08:18:16;;;;;;;10.75;2.17;;;15.50;99.90;;;;;;5081950;28;20074;-67
2022/05/13 08:20:43;;;;;;;8.07;2.08;;;15.50;99.90;;;;;;5082786;28;20522;-67
2022/05/13 08:23:09;;;;;;;11.05;2.15;;;15.60;99.90;;;;;;5085351;28;20055;-67
2022/05/13 08:25:35;;;;;;;9.60;2.15;;;16.00;99.90;;;;;;5082901;28;20063;-67
2022/05/13 08:28:00;;;;;;;7.47;1.75;;;16.00;99.90;;;;;;5064130;28;20032;-66
2022/05/13 08:30:26;;;;;;;6.43;2.38;;;16.00;99.90;;;;;;5063830;28;20496;-66
2022/05/13 08:32:52;;;;;;;7.28;2.15;;;16.20;99.90;;;;;;5084585;28;20056;-67
2022/05/13 08:35:20;;;;;;;10.27;2.33;;;16.30;99.90;;;;;;5078530;28;20134;-66
2022/05/13 08:37:49;;;;;;;7.90;2.38;;;16.60;99.90;;;;;;5081015;28;20483;-66
2022/05/13 08:40:43;;;;;;;8.43;2.65;;;16.60;99.90;;;;;;5081237;28;20044;-66
2022/05/13 08:43:11;;;;;;;;;;;16.50;99.90;;;;;;5083673;28;20101;-67
2022/05/13 08:45:40;;;;;;;11.05;2.35;;;16.30;99.90;;;;;;5083494;28;19932;-65
2022/05/13 08:48:09;;;;;;;10.32;2.17;;;16.50;99.90;;;;;;5086730;28;20051;-65
2022/05/13 08:50:55;;;;;;;12.63;2.47;;;16.50;99.90;;;;;;5062512;28;20504;-67
2022/05/13 08:53:29;;;;;;;10.38;3.22;;;16.60;99.90;;;;;;5080912;28;20142;-67
2022/05/13 08:56:03;;;;;;;12.95;2.28;;;16.60;99.90;;;;;;5086189;28;20119;-66
2022/05/13 08:58:37;;;;;;;6.93;1.67;;;16.60;99.90;;;;;;5082899;28;20211;-66
2022/05/13 09:01:08;;;;;;;8.43;2.00;;;16.50;99.90;;;;;;5060745;28;20052;-67
2022/05/13 09:03:50;;;;;;;9.25;2.10;;;16.50;99.90;;;;;;5071186;28;20048;-66
2022/05/13 09:06:48;;;;;;;8.80;2.78;;;16.50;99.90;;;;;;5064585;28;20064;-66
2022/05/13 09:09:14;;;;;;;11.48;2.72;;;16.50;99.90;;;;;;5061796;28;20047;-66
2022/05/13 09:11:52;;;;;;;9.27;2.38;;;16.20;99.90;;;;;;5065722;28;20048;-65
2022/05/13 09:14:38;;;;;;;9.45;2.80;;;16.00;99.90;;;;;;5085471;28;20739;-67
2022/05/13 09:17:27;;;;;;;10.23;2.33;;;15.80;99.90;;;;;;5074544;28;20741;-67
2022/05/13 09:20:03;;;;;;;8.02;1.77;;;15.70;99.90;;;;;;5078357;28;20505;-67
2022/05/13 09:22:52;;;;;;;13.27;2.58;;;15.60;99.90;;;;;;5061216;28;20487;-67
2022/05/13 09:25:51;;;;;;;8.10;2.58;;;15.60;99.90;;;;;;5076564;28;20036;-66
2022/05/13 09:28:18;;;;;;;12.40;2.88;;;15.60;99.90;;;;;;5080740;28;20040;-66
2022/05/13 09:30:46;;;;;;;8.73;2.55;;;16.00;99.90;;;;;;5066473;28;20131;-66
2022/05/13 09:33:32;;;;;;;11.00;2.65;;;16.30;99.90;;;;;;5069117;28;20143;-67
2022/05/13 09:36:08;;;;;;;11.20;3.22;;;16.50;99.90;;;;;;5067977;28;20036;-66
2022/05/13 09:38:46;;;;;;;10.23;2.97;;;16.80;99.90;;;;;;5050210;28;20043;-66
2022/05/13 09:41:23;;;;;;;9.18;1.95;;;17.00;99.90;;;;;;5073913;28;20155;-67
2022/05/13 09:44:03;;;;;;;9.40;2.33;;;17.20;99.90;;;;;;5074772;28;20051;-66
2022/05/13 09:46:46;;;;;;;9.95;2.25;;;17.10;99.90;;;;;;5069591;28;20093;-66
2022/05/13 09:49:21;;;;;;;10.45;2.38;;;17.20;99.90;;;;;;5077210;28;20128;-66
2022/05/13 09:51:58;;;;;;;5.50;1.95;;;17.20;99.90;;;;;;5075906;28;20062;-66
2022/05/13 09:54:34;;;;;;;8.82;2.03;;;17.40;99.90;;;;;;5072283;28;20087;-66
2022/05/13 09:57:12;;;;;;;7.85;2.22;;;17.50;99.90;;;;;;5080495;28;20047;-67
2022/05/13 09:59:43;;;;;;;8.90;2.38;;;17.40;99.90;;;;;;5073245;28;20119;-67
2022/05/13 10:02:40;;;;;;;7.60;2.42;;;17.40;99.90;;;;;;5078054;28;20052;-67
2022/05/13 10:05:21;;;;;;;11.85;2.38;;;17.40;99.90;;;;;;5058868;28;20541;-66
2022/05/13 10:07:53;;;;;;;8.95;2.25;;;17.20;99.90;;;;;;5056815;28;20637;-66
2022/05/13 10:16:26;;;;;;;9.23;2.60;;;17.60;99.90;;;;;;5063338;28;20561;-66
2022/05/13 10:19:09;;;;;;;10.73;2.75;;;17.80;99.90;;;;;;5077740;28;20036;-66
2022/05/13 10:22:06;;;;;;;9.38;2.97;;;17.80;99.90;;;;;;5075863;28;20059;-65
2022/05/13 10:24:59;;;;;;;14.05;3.08;;;17.70;99.90;;;;;;5080228;28;20047;-66
2022/05/13 10:27:37;;;;;;;8.68;2.28;;;17.50;99.90;;;;;;5050579;28;20136;-66
2022/05/13 10:30:16;;;;;;;10.73;2.58;;;17.50;99.90;;;;;;5078652;28;21263;-66
2022/05/13 10:32:57;;;;;;;10.73;2.17;;;17.60;99.90;;;;;;5082649;28;20043;-66
2022/05/13 10:35:41;;;;;;;14.52;2.92;;;17.50;99.90;;;;;;5078678;28;20044;-66
2022/05/13 10:38:26;;;;;;;8.73;2.47;;;17.50;99.90;;;;;;5082717;28;20052;-65
2022/05/13 10:40:54;;;;;;;11.35;3.85;;;17.80;99.90;;;;;;5082210;28;20051;-66
2022/05/13 10:43:32;;;;;;;11.50;3.20;;;18.00;99.90;;;;;;5079497;28;20422;-66
2022/05/13 10:46:24;;;;;;;6.85;2.45;;;18.00;99.90;;;;;;5069455;28;20483;-66
2022/05/13 10:48:52;;;;;;;7.63;2.40;;;17.70;99.90;;;;;;5063397;28;20044;-67
2022/05/13 10:51:34;;;;;;;10.02;2.45;;;17.80;99.90;;;;;;5080272;28;20075;-67
2022/05/13 10:54:15;;;;;;;10.63;2.65;;;17.70;99.90;;;;;;5063287;28;20041;-65
2022/05/13 10:56:50;;;;;;;21.75;2.97;;;17.70;99.90;;;;;;5066206;28;20499;-66
2022/05/13 10:59:29;;;;;;;8.82;2.53;;;17.80;99.90;;;;;;5066321;28;20044;-66
2022/05/13 11:02:33;;;;;;;11.73;2.70;;;18.00;99.90;;;;;;5081231;28;20036;-67
2022/05/13 11:05:26;;;;;;;7.97;2.35;;;18.00;99.90;;;;;;5082492;28;20411;-66
2022/05/13 11:08:16;;;;;;;5.38;1.90;;;18.10;99.90;;;;;;5056333;28;20480;-66
2022/05/13 11:10:57;;;;;;;13.95;2.58;;;18.20;99.90;;;;;;5071881;28;20083;-66
2022/05/13 11:13:43;;;;;;;12.43;2.45;;;18.00;99.90;;;;;;5065104;28;20050;-66
2022/05/13 11:16:28;;;;;;;8.98;2.72;;;17.60;99.90;;;;;;5053491;28;20043;-66
2022/05/13 11:19:04;;;;;;;8.70;2.28;;;17.40;99.90;;;;;;5072277;28;20063;-66
2022/05/13 11:21:39;;;;;;;9.35;2.60;;;17.30;99.90;;;;;;5083805;28;20047;-66
2022/05/13 11:27:00;;;;;;;12.32;2.70;;;17.30;99.90;;;;;;5083614;28;20048;-66
2022/05/13 11:29:37;;;;;;;12.57;3.80;;;17.00;99.90;;;;;;5079876;28;20159;-66
2022/05/13 11:32:26;;;;;;;12.60;3.72;;;16.70;99.90;;;;;;5079938;28;20083;-67
2022/05/13 11:35:19;;;;;;;12.60;3.78;;;16.50;99.90;;;;;;5080585;28;20131;-66
2022/05/13 11:37:46;;;;;;;9.07;2.83;;;16.40;99.90;;;;;;5078417;28;20123;-66
2022/05/13 11:40:19;;;;;;;11.40;3.13;;;16.30;99.90;;;;;;5055742;28;20145;-68
2022/05/13 11:43:18;;;;;;;11.38;3.08;;;16.20;99.90;;;;;;5082087;28;20432;-65
2022/05/13 11:45:56;;;;;;;11.20;2.72;;;16.20;99.90;;;;;;5060643;28;20377;-64
2022/05/13 11:48:43;;;;;;;10.82;3.08;;;16.20;99.90;;;;;;5079748;28;20037;-66
2022/05/13 11:51:09;;;;;;;9.70;3.30;;;16.40;99.90;;;;;;5072143;28;20457;-69
2022/05/13 11:53:47;;;;;;;9.38;2.05;;;16.50;99.90;;;;;;5084391;28;20044;-68
2022/05/13 11:56:31;;;;;;;10.82;2.53;;;16.70;99.90;;;;;;5079661;28;20063;-68
2022/05/13 11:59:03;;;;;;;11.60;2.25;;;16.90;99.90;;;;;;5067155;28;20064;-68
2022/05/13 12:01:37;;;;;;;7.80;2.63;;;17.10;99.90;;;;;;5080178;28;20141;-68
2022/05/13 12:04:16;;;;;;;11.25;3.03;;;17.20;99.90;;;;;;5081966;28;20087;-68
2022/05/13 12:06:48;;;;;;;6.28;1.92;;;17.30;99.90;;;;;;5067631;28;20056;-68
2022/05/13 12:09:17;;;;;;;11.32;2.75;;;17.20;99.90;;;;;;5084659;28;20048;-68
2022/05/13 12:12:13;;;;;;;8.40;2.42;;;17.40;99.90;;;;;;5064903;28;20128;-68
2022/05/13 12:15:13;;;;;;;10.43;2.30;;;17.50;99.90;;;;;;5068047;28;20062;-71
2022/05/13 12:17:42;;;;;;;10.02;2.45;;;17.90;99.90;;;;;;5064257;28;20167;-70
2022/05/13 12:20:45;;;;;;;12.13;2.45;;;17.90;99.90;;;;;;5069684;28;20228;-71
2022/05/13 12:23:31;;;;;;;12.30;2.55;;;18.00;99.90;;;;;;5090284;28;20395;-71
2022/05/13 12:26:03;;;;;;;7.30;2.65;;;17.80;99.90;;;;;;5084843;28;20089;-71
2022/05/13 12:28:42;;;;;;;10.02;3.45;;;17.90;99.90;;;;;;5071876;28;20525;-71
2022/05/13 12:31:45;;;;;;;11.05;2.33;;;18.20;99.90;;;;;;5088502;28;20063;-71
2022/05/13 12:39:56;;;;;;;12.23;2.03;;;17.90;99.90;;;;;;5084706;28;20040;-68
2022/05/13 12:42:46;;;;;;;10.45;2.55;;;17.80;99.90;;;;;;5084728;28;20036;-68
2022/05/13 12:45:18;;;;;;;10.95;2.80;;;17.50;99.90;;;;;;5083998;28;20090;-68
2022/05/13 12:48:11;;;;;;;7.60;1.97;;;17.50;99.90;;;;;;5087969;28;20321;-68
2022/05/13 12:50:48;;;;;;;7.53;1.83;;;17.60;99.90;;;;;;5065836;28;20118;-68
2022/05/13 12:53:29;;;;;;;9.20;2.65;;;17.70;99.90;;;;;;5089009;28;20059;-68
2022/05/13 12:56:01;;;;;;;8.32;2.30;;;17.70;99.90;;;;;;5087122;28;20044;-68
2022/05/13 12:58:30;;;;;;;11.80;2.60;;;17.60;99.90;;;;;;5068568;28;20043;-69
2022/05/13 13:00:57;;;;;;;12.40;2.47;;;17.80;99.90;;;;;;5065581;28;20040;-69
2022/05/13 13:03:24;;;;;;;10.57;2.35;;;17.90;99.90;;;;;;5064559;28;20059;-68
2022/05/13 13:06:04;;;;;;;9.45;2.35;;;18.00;99.90;;;;;;5085857;28;20495;-68
2022/05/13 13:08:36;;;;;;;13.25;2.63;;;17.90;99.90;;;;;;5070457;28;20127;-68
2022/05/13 13:11:15;;;;;;;9.70;2.58;;;17.70;99.90;;;;;;5084957;28;20047;-68
2022/05/13 13:14:06;;;;;;;10.70;2.67;;;17.50;99.90;;;;;;5090581;28;20040;-69
2022/05/13 13:16:57;;;;;;;11.48;3.20;;;17.80;99.90;;;;;;5054385;28;20049;-68
2022/05/13 13:19:28;;;;;;;11.05;2.35;;;18.10;99.90;;;;;;5068826;28;20035;-67
2022/05/13 13:22:00;;;;;;;8.27;1.92;;;18.00;99.90;;;;;;5084138;28;20063;-67
2022/05/13 13:24:29;;;;;;;14.45;3.30;;;18.00;99.90;;;;;;5049817;28;20040;-67
2022/05/13 13:26:56;;;;;;;12.88;2.30;;;18.00;99.90;;;;;;5066285;28;20453;-67
2022/05/13 13:29:24;;;;;;;9.75;2.42;;;18.10;99.90;;;;;;5070899;28;20123;-69
2022/05/13 13:31:51;;;;;;;7.85;2.47;;;18.00;99.90;;;;;;5088895;28;20051;-69